Atlantic Island — C4VM2 — position and weather

sailwx.info

Track history (hours):
 
Tides and Currents Weather Stations Pressure Air Temp Water Temp Dewpoint Dewpoint Depression Visibility Wind Speed Wind Dir Waves Ship Positions

Atlantic Island

Last reported at 2016-Sep-26 11:33 UTC. Time now 2016-Sep-29 05:01 UTC.
Position N 37°34' W 000°30'.

Length 95 m; draft 5 m.

Type: Cargo ship. MMSI: 210754000.

Date/timePositionNaut miles runAvg speedWind from/ knotsBaromVisibWave heightAir tempDewpointWater temp
2016-Sep-26 11:33N 37°34' W 000°30'349 8.6
2016-Sep-24 19:07N 36°12' W 007°34'610.6
2016-Sep-24 18:33N 36°13' W 007°41'1110.6
2016-Sep-24 17:33N 36°16' W 007°54'1210.2
2016-Sep-24 16:20N 36°20' W 008°09'102 8.0
2016-Sep-24 03:32N 37°46' W 009°16'1110.7
2016-Sep-24 02:33N 37°56' W 009°12'1010.3
2016-Sep-24 01:33N 38°06' W 009°08'1010.4
2016-Sep-24 00:33N 38°16' W 009°04'18 3.5
2016-Sep-23 19:31N 38°30' W 008°51'0 0.0
2016-Sep-23 17:31N 38°30' W 008°51'0 0.0
2016-Sep-23 16:31N 38°30' W 008°51'0 0.0
2016-Sep-23 15:31N 38°30' W 008°51'0 0.0
2016-Sep-23 06:22N 38°30' W 008°51'10 5.4
2016-Sep-23 04:33N 38°23' W 008°60'7 6.9
2016-Sep-23 03:33N 38°17' W 009°02'7 6.9
2016-Sep-23 02:33N 38°10' W 009°03'8 7.8
2016-Sep-23 01:33N 38°02' W 009°06'8 8.2
2016-Sep-23 00:33N 37°54' W 009°08'8 8.0
2016-Sep-22 23:33N 37°46' W 009°10'23 7.4
2016-Sep-22 20:29N 37°24' W 009°15'50 6.3
2016-Sep-22 12:32N 36°39' W 008°47'166 9.8
2016-Sep-21 19:33N 35°60' W 005°27'155 9.7
2016-Sep-21 03:33N 36°25' W 002°16'1410.2
2016-Sep-21 02:11N 36°33' W 002°02'9110.5
2016-Sep-20 17:33N 37°33' W 000°37'15510.3
2016-Sep-20 02:33N 39°23' E 001°42'3210.8
2016-Sep-19 23:33N 39°40' E 002°17'45 8.9
2016-Sep-19 18:31N 39°52' E 003°13'4 1.9
2016-Sep-19 16:28N 39°50' E 003°08'0 0.0
2016-Sep-19 14:22N 39°50' E 003°08'0 0.0
2016-Sep-19 13:28N 39°50' E 003°08'0 0.0
2016-Sep-19 11:28N 39°50' E 003°08'0 0.0
2016-Sep-19 09:10N 39°50' E 003°08'0 0.0
2016-Sep-19 07:22N 39°50' E 003°08'0 0.0
2016-Sep-19 06:22N 39°50' E 003°08'0 0.0
2016-Sep-19 02:22N 39°50' E 003°08'0 0.0
2016-Sep-19 00:28N 39°50' E 003°08'0 0.0
2016-Sep-18 19:27N 39°50' E 003°08'0 0.0
2016-Sep-18 15:33N 39°50' E 003°08'0 0.0
2016-Sep-18 14:27N 39°50' E 003°08'0 0.0
2016-Sep-18 10:33N 39°50' E 003°08'0 0.0
2016-Sep-18 09:27N 39°50' E 003°08'0 0.0
2016-Sep-18 02:15N 39°50' E 003°08'0 0.0
2016-Sep-18 01:33N 39°50' E 003°08'0 0.0
2016-Sep-18 00:27N 39°50' E 003°08'0 0.0
2016-Sep-17 21:33N 39°50' E 003°08'0 0.0
2016-Sep-17 20:27N 39°50' E 003°08'0 0.0
2016-Sep-17 19:15N 39°50' E 003°08'22 3.2
2016-Sep-17 12:28N 39°33' E 003°27'18 9.6
2016-Sep-17 10:33N 39°18' E 003°14'10 9.7
2016-Sep-17 09:33N 39°09' E 003°08'10 9.8
2016-Sep-17 08:33N 39°01' E 003°01'1010.3
2016-Sep-17 07:32N 38°56' E 002°49'2110.6
2016-Sep-17 05:33N 38°46' E 002°26'1210.9
2016-Sep-17 04:25N 38°40' E 002°11'  
Track history (hours):
 
Tides and Currents Weather Stations Pressure Air Temp Water Temp Dewpoint Dewpoint Depression Visibility Wind Speed Wind Dir Waves Ship Positions

Atlantic Island

Last reported at 2016-Sep-26 11:33 UTC. Time now 2016-Sep-29 05:01 UTC.
Position N 37°34' W 000°30'.

Length 95 m; draft 5 m.

Type: Cargo ship. MMSI: 210754000.

Date/timePositionNaut miles runAvg speedWind from/ knotsBaromVisibWave heightAir tempDewpointWater temp
2016-Sep-26 11:33N 37°34' W 000°30'349 8.6
2016-Sep-24 19:07N 36°12' W 007°34'610.6
2016-Sep-24 18:33N 36°13' W 007°41'1110.6
2016-Sep-24 17:33N 36°16' W 007°54'1210.2
2016-Sep-24 16:20N 36°20' W 008°09'102 8.0
2016-Sep-24 03:32N 37°46' W 009°16'1110.7
2016-Sep-24 02:33N 37°56' W 009°12'1010.3
2016-Sep-24 01:33N 38°06' W 009°08'1010.4
2016-Sep-24 00:33N 38°16' W 009°04'18 3.5
2016-Sep-23 19:31N 38°30' W 008°51'0 0.0
2016-Sep-23 17:31N 38°30' W 008°51'0 0.0
2016-Sep-23 16:31N 38°30' W 008°51'0 0.0
2016-Sep-23 15:31N 38°30' W 008°51'0 0.0
2016-Sep-23 06:22N 38°30' W 008°51'10 5.4
2016-Sep-23 04:33N 38°23' W 008°60'7 6.9
2016-Sep-23 03:33N 38°17' W 009°02'7 6.9
2016-Sep-23 02:33N 38°10' W 009°03'8 7.8
2016-Sep-23 01:33N 38°02' W 009°06'8 8.2
2016-Sep-23 00:33N 37°54' W 009°08'8 8.0
2016-Sep-22 23:33N 37°46' W 009°10'23 7.4
2016-Sep-22 20:29N 37°24' W 009°15'50 6.3
2016-Sep-22 12:32N 36°39' W 008°47'166 9.8
2016-Sep-21 19:33N 35°60' W 005°27'155 9.7
2016-Sep-21 03:33N 36°25' W 002°16'1410.2
2016-Sep-21 02:11N 36°33' W 002°02'9110.5
2016-Sep-20 17:33N 37°33' W 000°37'15510.3
2016-Sep-20 02:33N 39°23' E 001°42'3210.8
2016-Sep-19 23:33N 39°40' E 002°17'45 8.9
2016-Sep-19 18:31N 39°52' E 003°13'4 1.9
2016-Sep-19 16:28N 39°50' E 003°08'0 0.0
2016-Sep-19 14:22N 39°50' E 003°08'0 0.0
2016-Sep-19 13:28N 39°50' E 003°08'0 0.0
2016-Sep-19 11:28N 39°50' E 003°08'0 0.0
2016-Sep-19 09:10N 39°50' E 003°08'0 0.0
2016-Sep-19 07:22N 39°50' E 003°08'0 0.0
2016-Sep-19 06:22N 39°50' E 003°08'0 0.0
2016-Sep-19 02:22N 39°50' E 003°08'0 0.0
2016-Sep-19 00:28N 39°50' E 003°08'0 0.0
2016-Sep-18 19:27N 39°50' E 003°08'0 0.0
2016-Sep-18 15:33N 39°50' E 003°08'0 0.0
2016-Sep-18 14:27N 39°50' E 003°08'0 0.0
2016-Sep-18 10:33N 39°50' E 003°08'0 0.0
2016-Sep-18 09:27N 39°50' E 003°08'0 0.0
2016-Sep-18 02:15N 39°50' E 003°08'0 0.0
2016-Sep-18 01:33N 39°50' E 003°08'0 0.0
2016-Sep-18 00:27N 39°50' E 003°08'0 0.0
2016-Sep-17 21:33N 39°50' E 003°08'0 0.0
2016-Sep-17 20:27N 39°50' E 003°08'0 0.0
2016-Sep-17 19:15N 39°50' E 003°08'22 3.2
2016-Sep-17 12:28N 39°33' E 003°27'18 9.6
2016-Sep-17 10:33N 39°18' E 003°14'10 9.7
2016-Sep-17 09:33N 39°09' E 003°08'10 9.8
2016-Sep-17 08:33N 39°01' E 003°01'1010.3
2016-Sep-17 07:32N 38°56' E 002°49'2110.6
2016-Sep-17 05:33N 38°46' E 002°26'1210.9
2016-Sep-17 04:25N 38°40' E 002°11'  

Dump ship's entire track history